Time;durP1;ratioP1;P1;durP2;ratioP2;P2;SDS_P1;SDS_P2;PMS_P1;PMS_P2;Temp;Humidity;BMP_temperature;BMP_pressure;BME280_temperature;BME280_humidity;BME280_pressure;Samples;Min_cycle;Max_cycle;Signal;HPM_P1;HPM_P2
2022/09/23 00:01:13;;;;;;;;;;;20.50;79.70;;;;;;5071858;28;19924;-60
2022/09/23 00:03:40;;;;;;;;;;;20.80;79.80;;;;;;5059951;28;20286;-60
2022/09/23 00:06:09;;;;;;;;;;;20.70;79.80;;;;;;5066049;28;19928;-62
2022/09/23 00:08:35;;;;;;;;;;;20.60;79.70;;;;;;5073306;28;20387;-60
2022/09/23 00:11:07;;;;;;;;;;;20.70;79.80;;;;;;5060986;28;20066;-60
2022/09/23 00:13:33;;;;;;;;;;;20.50;79.70;;;;;;5073258;28;19928;-60
2022/09/23 00:16:05;;;;;;;;;;;20.70;79.80;;;;;;5073540;28;20314;-63
2022/09/23 00:18:31;;;;;;;;;;;20.70;79.80;;;;;;5064627;28;19925;-62
2022/09/23 00:20:57;;;;;;;;;;;20.70;79.80;;;;;;5071430;28;19924;-60
2022/09/23 00:23:22;;;;;;;;;;;20.90;79.90;;;;;;5073019;28;20015;-61
2022/09/23 00:25:55;;;;;;;;;;;20.70;79.80;;;;;;5073604;28;19924;-60
2022/09/23 00:28:21;;;;;;;;;;;20.60;79.70;;;;;;5069806;28;19970;-61
2022/09/23 00:30:46;;;;;;;;;;;20.50;79.70;;;;;;5063850;28;19928;-61
2022/09/23 00:33:12;;;;;;;;;;;20.50;79.70;;;;;;5074182;28;20329;-61
2022/09/23 00:35:38;;;;;;;;;;;20.90;79.90;;;;;;5073541;28;20321;-60
2022/09/23 00:38:04;;;;;;;;;;;;;;;;;;5073901;28;19964;-68
2022/09/23 00:40:29;;;;;;;;;;;20.50;79.70;;;;;;5072765;28;20030;-60
2022/09/23 00:42:55;;;;;;;;;;;20.60;79.70;;;;;;5061002;28;20031;-61
2022/09/23 00:45:21;;;;;;;;;;;20.50;79.70;;;;;;5073310;28;20033;-61
2022/09/23 00:47:48;;;;;;;;;;;20.50;79.80;;;;;;5072753;28;20365;-61
2022/09/23 00:50:17;;;;;;;;;;;20.70;79.90;;;;;;5071992;28;19925;-61
2022/09/23 00:52:43;;;;;;;;;;;20.70;79.90;;;;;;5070713;28;19928;-61
2022/09/23 00:55:10;;;;;;;;;;;20.50;79.80;;;;;;5071054;28;19931;-62
2022/09/23 00:57:36;;;;;;;;;;;20.60;79.90;;;;;;5074136;28;20019;-60
2022/09/23 01:00:02;;;;;;;;;;;20.70;79.90;;;;;;5055462;28;20071;-61
2022/09/23 01:02:28;;;;;;;;;;;20.50;79.80;;;;;;5069944;28;20405;-60
2022/09/23 01:04:54;;;;;;;;;;;20.50;79.80;;;;;;5054202;28;19932;-62
2022/09/23 01:07:20;;;;;;;;;;;20.40;79.70;;;;;;5072488;28;19978;-63
2022/09/23 01:09:46;;;;;;;;;;;20.50;79.80;;;;;;5073162;28;19931;-61
2022/09/23 01:12:24;;;;;;;;;;;20.50;79.80;;;;;;5071478;28;19968;-60
2022/09/23 01:14:53;;;;;;;;;;;20.90;80.00;;;;;;5062103;28;20402;-60
2022/09/23 01:17:38;;;;;;;;;;;20.70;79.90;;;;;;5074256;28;19973;-60
2022/09/23 01:20:09;;;;;;;;;;;20.60;79.90;;;;;;5070965;28;20488;-60
2022/09/23 01:22:35;;;;;;;;;;;20.30;79.70;;;;;;5055410;28;19927;-59
2022/09/23 01:25:07;;;;;;;;;;;20.50;79.80;;;;;;5057870;28;19929;-62
2022/09/23 01:27:40;;;;;;;;;;;20.50;79.80;;;;;;5071352;28;19925;-61
2022/09/23 01:30:07;;;;;;;;;;;20.60;79.80;;;;;;5051546;28;20391;-61
2022/09/23 01:32:38;;;;;;;;;;;20.60;79.90;;;;;;5074619;28;19920;-60
2022/09/23 01:35:06;;;;;;;;;;;20.70;79.90;;;;;;5076158;28;19924;-60
2022/09/23 01:37:39;;;;;;;;;;;20.50;79.10;;;;;;5076215;28;19927;-61
2022/09/23 01:40:05;;;;;;;;;;;20.40;79.60;;;;;;5073974;28;19936;-60
2022/09/23 01:42:35;;;;;;;;;;;20.20;79.50;;;;;;5057565;28;19925;-60
2022/09/23 01:45:09;;;;;;;;;;;20.60;79.70;;;;;;5066995;28;20015;-61
2022/09/23 01:47:36;;;;;;;;;;;20.60;79.70;;;;;;5076177;28;19924;-61
2022/09/23 01:50:54;;;;;;;;;;;20.30;79.60;;;;;;5075916;28;19970;-60
2022/09/23 01:52:48;;;;;;;;;;;20.40;79.70;;;;;;5076347;28;19925;-60
2022/09/23 01:55:14;;;;;;;;;;;20.20;79.60;;;;;;5076604;28;20340;-60
2022/09/23 01:57:41;;;;;;;;;;;20.60;79.80;;;;;;5076587;28;20333;-60
2022/09/23 02:00:09;;;;;;;;;;;20.40;79.70;;;;;;5075572;28;19925;-61
2022/09/23 02:02:48;;;;;;;;;;;20.60;79.80;;;;;;5075402;28;19925;-60
2022/09/23 02:05:17;;;;;;;;;;;20.70;79.80;;;;;;5074957;28;20011;-62
2022/09/23 02:07:47;;;;;;;;;;;20.40;79.70;;;;;;5048744;28;19971;-62
2022/09/23 02:10:14;;;;;;;;;;;20.40;79.70;;;;;;5076212;28;19969;-60
2022/09/23 02:12:40;;;;;;;;;;;20.60;79.80;;;;;;5073431;28;19928;-61
2022/09/23 02:15:07;;;;;;;;;;;20.60;79.70;;;;;;5074604;28;19924;-61
2022/09/23 02:17:35;;;;;;;;;;;20.50;79.70;;;;;;5066332;28;19924;-60
2022/09/23 02:20:02;;;;;;;;;;;20.30;79.50;;;;;;5075195;28;20470;-61
2022/09/23 02:22:34;;;;;;;;;;;20.50;79.60;;;;;;5073746;28;20271;-61
2022/09/23 02:25:02;;;;;;;;;;;20.50;79.60;;;;;;5056840;28;20346;-60
2022/09/23 02:27:27;;;;;;;;;;;20.50;79.60;;;;;;5056677;28;20328;-60
2022/09/23 02:30:00;;;;;;;;;;;20.20;79.50;;;;;;5066851;28;19924;-61
2022/09/23 02:32:40;;;;;;;;;;;20.40;79.60;;;;;;5075714;28;19932;-62
2022/09/23 02:35:06;;;;;;;;;;;20.30;79.50;;;;;;5061217;28;19971;-61
2022/09/23 02:37:44;;;;;;;;;;;20.20;79.50;;;;;;5076301;28;19975;-61
2022/09/23 02:40:12;;;;;;;;;;;20.30;79.40;;;;;;5072080;28;19939;-60
2022/09/23 02:42:44;;;;;;;;;;;20.50;79.60;;;;;;5074932;28;19920;-62
2022/09/23 02:45:09;;;;;;;;;;;20.30;79.60;;;;;;5053996;28;19974;-60
2022/09/23 02:47:35;;;;;;;;;;;20.00;79.50;;;;;;5055523;28;20015;-61
2022/09/23 02:50:01;;;;;;;;;;;20.30;79.60;;;;;;5075811;28;19924;-60
2022/09/23 02:52:27;;;;;;;;;;;20.20;79.60;;;;;;5076286;28;19932;-60
2022/09/23 02:54:52;;;;;;;;;;;20.30;79.60;;;;;;5073016;28;20286;-60
2022/09/23 02:57:18;;;;;;;;;;;20.20;79.60;;;;;;5074336;28;20297;-60
2022/09/23 02:59:45;;;;;;;;;;;;;;;;;;5073280;28;19932;-63
2022/09/23 03:02:19;;;;;;;;;;;20.30;79.70;;;;;;5058431;28;20436;-60
2022/09/23 03:04:57;;;;;;;;;;;20.10;79.60;;;;;;5069238;28;19956;-60
2022/09/23 03:07:31;;;;;;;;;;;20.10;79.70;;;;;;5061731;28;20059;-60
2022/09/23 03:09:57;;;;;;;;;;;20.30;79.80;;;;;;5066778;28;19970;-61
2022/09/23 03:12:33;;;;;;;;;;;20.30;79.80;;;;;;5075191;28;19920;-62
2022/09/23 03:15:11;;;;;;;;;;;20.40;79.80;;;;;;5072264;28;20011;-61
2022/09/23 03:17:43;;;;;;;;;;;20.30;79.70;;;;;;5064100;28;20405;-61
2022/09/23 03:20:11;;;;;;;;;;;20.30;79.70;;;;;;5069599;28;19929;-60
2022/09/23 03:22:38;;;;;;;;;;;20.30;79.70;;;;;;5074894;28;19924;-60
2022/09/23 03:25:06;;;;;;;;;;;20.30;79.70;;;;;;5073868;28;19925;-60
2022/09/23 03:27:31;;;;;;;;;;;20.30;79.80;;;;;;5073608;28;19978;-61
2022/09/23 03:29:57;;;;;;;;;;;20.20;79.70;;;;;;5073652;28;19924;-60
2022/09/23 03:32:23;;;;;;;;;;;20.00;79.60;;;;;;5075327;28;19925;-60
2022/09/23 03:34:50;;;;;;;;;;;20.40;79.80;;;;;;5075179;28;19928;-60
2022/09/23 03:37:20;;;;;;;;;;;20.10;79.60;;;;;;5070072;28;19939;-61
2022/09/23 03:39:53;;;;;;;;;;;20.30;79.70;;;;;;5071899;28;19935;-61
2022/09/23 03:42:20;;;;;;;;;;;20.30;79.70;;;;;;5074508;28;19948;-62
2022/09/23 03:44:46;;;;;;;;;;;19.90;79.50;;;;;;5074525;28;20007;-60
2022/09/23 03:47:13;;;;;;;;;;;20.00;79.60;;;;;;5072192;28;19975;-60
2022/09/23 03:49:39;;;;;;;;;;;20.10;79.60;;;;;;5061881;28;19924;-60
2022/09/23 03:52:05;;;;;;;;;;;20.30;79.70;;;;;;5064143;28;19932;-61
2022/09/23 03:54:31;;;;;;;;;;;20.30;79.70;;;;;;5071805;28;20290;-60
2022/09/23 03:56:57;;;;;;;;;;;20.10;79.60;;;;;;5065911;28;20301;-62
2022/09/23 03:59:23;;;;;;;;;;;20.00;79.60;;;;;;5070842;28;20370;-61
2022/09/23 04:01:49;;;;;;;;;;;20.00;79.60;;;;;;5074125;28;19964;-62
2022/09/23 04:04:15;;;;;;;;;;;20.10;79.70;;;;;;5069438;28;19986;-60
2022/09/23 04:06:40;;;;;;;;;;;20.10;79.70;;;;;;5062841;28;20026;-60
2022/09/23 04:09:06;;;;;;;;;;;20.10;79.70;;;;;;5064882;28;19931;-64
2022/09/23 04:11:32;;;;;;;;;;;20.10;79.70;;;;;;5070993;28;19924;-61
2022/09/23 04:13:57;;;;;;;;;;;20.20;79.80;;;;;;5066111;28;19979;-60
2022/09/23 04:16:23;;;;;;;;;;;20.00;79.60;;;;;;5067746;28;20271;-60
2022/09/23 04:18:49;;;;;;;;;;;20.10;78.90;;;;;;5071545;28;20404;-60
2022/09/23 04:21:14;;;;;;;;;;;20.30;79.80;;;;;;5073685;28;20301;-60
2022/09/23 04:23:40;;;;;;;;;;;20.00;79.60;;;;;;5069285;28;19929;-61
2022/09/23 04:26:06;;;;;;;;;;;19.80;79.50;;;;;;5072501;28;20483;-61
2022/09/23 04:28:32;;;;;;;;;;;20.10;79.70;;;;;;5074444;28;19924;-60
2022/09/23 04:30:57;;;;;;;;;;;19.90;79.60;;;;;;5073463;28;19924;-60
2022/09/23 04:33:23;;;;;;;;;;;20.10;79.70;;;;;;5073831;28;19924;-60
2022/09/23 04:35:52;;;;;;;;;;;19.90;79.60;;;;;;5073991;28;19928;-60
2022/09/23 04:38:17;;;;;;;;;;;19.80;79.60;;;;;;5071638;28;20413;-61
2022/09/23 04:40:43;;;;;;;;;;;20.10;79.80;;;;;;5072093;28;19924;-61
2022/09/23 04:43:09;;;;;;;;;;;20.00;79.80;;;;;;5073092;28;19928;-61
2022/09/23 04:45:34;;;;;;;;;;;20.00;79.80;;;;;;5071228;28;19974;-60
2022/09/23 04:48:01;;;;;;;;;;;19.70;79.60;;;;;;5072994;28;19932;-60
2022/09/23 04:50:26;;;;;;;;;;;19.90;79.70;;;;;;5068302;28;20293;-60
2022/09/23 04:52:52;;;;;;;;;;;20.20;79.80;;;;;;5063660;28;20003;-60
2022/09/23 04:55:18;;;;;;;;;;;20.10;79.80;;;;;;5054011;28;19931;-60
2022/09/23 04:57:44;;;;;;;;;;;19.90;79.70;;;;;;5070440;28;20285;-60
2022/09/23 05:00:14;;;;;;;;;;;20.00;79.70;;;;;;5072109;28;20016;-60
2022/09/23 05:02:43;;;;;;;;;;;19.70;79.70;;;;;;5070808;28;20023;-61
2022/09/23 05:05:09;;;;;;;;;;;20.10;79.90;;;;;;5064538;28;19935;-60
2022/09/23 05:07:35;;;;;;;;;;;19.80;79.90;;;;;;5073477;28;20011;-60
2022/09/23 05:10:00;;;;;;;;;;;19.80;79.90;;;;;;5073042;28;19924;-61
2022/09/23 05:12:26;;;;;;;;;;;19.80;79.90;;;;;;5069785;28;19931;-61
2022/09/23 05:14:51;;;;;;;;;;;19.90;79.90;;;;;;5072956;28;20353;-60
2022/09/23 05:17:17;;;;;;;;;;;20.00;80.00;;;;;;5072823;28;19931;-61
2022/09/23 05:19:43;;;;;;;;;;;19.90;80.00;;;;;;5073906;28;19931;-60
2022/09/23 05:22:08;;;;;;;;;;;19.90;80.00;;;;;;5069311;28;19933;-60
2022/09/23 05:24:34;;;;;;;;;;;19.80;80.00;;;;;;5072053;28;20290;-60
2022/09/23 05:26:59;;;;;;;;;;;20.00;80.00;;;;;;5071688;28;19925;-60
2022/09/23 05:29:25;;;;;;;;;;;19.70;80.00;;;;;;5054318;28;19925;-60
2022/09/23 05:31:51;;;;;;;;;;;20.00;80.10;;;;;;5063811;28;19924;-60
2022/09/23 05:34:17;;;;;;;;;;;19.60;80.00;;;;;;5071718;28;19929;-61
2022/09/23 05:36:43;;;;;;;;;;;20.00;80.20;;;;;;5072828;28;19932;-60
2022/09/23 05:39:08;;;;;;;;;;;19.90;80.10;;;;;;5060510;28;19929;-61
2022/09/23 05:41:34;;;;;;;;;;;19.90;80.10;;;;;;5066003;28;19978;-62
2022/09/23 05:44:00;;;;;;;;;;;20.00;80.20;;;;;;5071354;28;19947;-60
2022/09/23 05:46:26;;;;;;;;;;;;;;;;;;5072989;28;20295;-61
2022/09/23 05:48:53;;;;;;;;;;;19.80;80.10;;;;;;5073433;28;19932;-60
2022/09/23 05:51:20;;;;;;;;;;;20.00;79.80;;;;;;5072753;28;20330;-60
2022/09/23 05:53:46;;;;;;;;;;;;;;;;;;5072134;28;19925;-62
2022/09/23 05:56:12;;;;;;;;;;;19.90;80.00;;;;;;5071292;28;19932;-60
2022/09/23 05:58:38;;;;;;;;;;;20.10;79.80;;;;;;5072016;28;19924;-61
2022/09/23 06:01:10;;;;;;;;;;;19.90;79.90;;;;;;5070959;28;19931;-61
2022/09/23 06:03:36;;;;;;;;;;;19.90;79.90;;;;;;5072741;28;19924;-60
2022/09/23 06:06:01;;;;;;;;;;;20.00;80.00;;;;;;5071731;28;19925;-61
2022/09/23 06:08:27;;;;;;;;;;;19.90;79.80;;;;;;5071915;28;19925;-62
2022/09/23 06:10:53;;;;;;;;;;;19.80;79.80;;;;;;5071204;28;19925;-61
2022/09/23 06:13:18;;;;;;;;;;;19.90;79.80;;;;;;5071459;28;19935;-61
2022/09/23 06:15:44;;;;;;;;;;;19.90;79.80;;;;;;5070057;28;19932;-62
2022/09/23 06:18:10;;;;;;;;;;;19.90;79.90;;;;;;5075619;28;19924;-61
2022/09/23 06:20:36;;;;;;;;;;;20.20;80.00;;;;;;5072506;28;19925;-60
2022/09/23 06:23:02;;;;;;;;;;;20.30;80.00;;;;;;5064839;28;19971;-60
2022/09/23 06:25:28;;;;;;;;;;;20.20;79.70;;;;;;5075186;28;19970;-60
2022/09/23 06:27:54;;;;;;;;;;;20.30;79.70;;;;;;5075554;28;20344;-60
2022/09/23 06:30:20;;;;;;;;;;;;;;;;;;5071406;28;19936;-65
2022/09/23 06:32:50;;;;;;;;;;;20.20;79.70;;;;;;5076810;28;19930;-61
2022/09/23 06:35:23;;;;;;;;;;;20.50;79.50;;;;;;5072812;28;19932;-61
2022/09/23 06:37:49;;;;;;;;;;;20.40;79.50;;;;;;5069494;28;19989;-62
2022/09/23 06:40:15;;;;;;;;;;;20.70;79.40;;;;;;5072794;28;19924;-66
2022/09/23 06:42:41;;;;;;;;;;;20.70;79.40;;;;;;5076187;28;19925;-68
2022/09/23 06:45:07;;;;;;;;;;;20.60;79.20;;;;;;5076541;28;20275;-67
2022/09/23 06:47:33;;;;;;;;;;;;;;;;;;5066661;28;19932;-62
2022/09/23 06:49:58;;;;;;;;;;;21.00;79.00;;;;;;5059203;28;20406;-62
2022/09/23 06:52:25;;;;;;;;;;;21.00;79.00;;;;;;5058358;28;19960;-61
2022/09/23 06:54:51;;;;;;;;;;;21.00;78.80;;;;;;5054762;28;19920;-61
2022/09/23 06:57:16;;;;;;;;;;;21.10;78.50;;;;;;5064210;28;19931;-61
2022/09/23 06:59:42;;;;;;;;;;;20.90;78.30;;;;;;5061706;28;19927;-61
2022/09/23 07:02:08;;;;;;;;;;;21.30;78.30;;;;;;5075013;28;20267;-61
2022/09/23 07:04:34;;;;;;;;;;;21.20;78.20;;;;;;5059763;28;19932;-61
2022/09/23 07:06:59;;;;;;;;;;;21.40;78.30;;;;;;5056013;28;19932;-61
2022/09/23 07:09:26;;;;;;;;;;;21.30;78.10;;;;;;5084770;28;19928;-61
2022/09/23 07:11:52;;;;;;;;;;;21.40;78.00;;;;;;5068891;28;19935;-62
2022/09/23 07:14:18;;;;;;;;;;;21.60;77.40;;;;;;5055406;28;19925;-61
2022/09/23 07:16:43;;;;;;;;;;;21.50;76.90;;;;;;5064698;28;19924;-61
2022/09/23 07:19:11;;;;;;;;;;;21.60;77.00;;;;;;5071193;28;19946;-61
2022/09/23 07:21:36;;;;;;;;;;;21.60;76.30;;;;;;5069873;28;19936;-65
2022/09/23 07:24:02;;;;;;;;;;;21.70;76.20;;;;;;5075004;28;20354;-64
2022/09/23 07:26:28;;;;;;;;;;;21.80;76.00;;;;;;5070745;28;19933;-61
2022/09/23 07:28:54;;;;;;;;;;;21.80;76.00;;;;;;5069486;28;19924;-62
2022/09/23 07:31:20;;;;;;;;;;;21.60;75.60;;;;;;5054634;28;19931;-74
2022/09/23 07:33:47;;;;;;;;;;;21.70;75.80;;;;;;5055132;28;19925;-71
2022/09/23 07:36:13;;;;;;;;;;;21.80;75.40;;;;;;5070446;28;19925;-72
2022/09/23 07:38:39;;;;;;;;;;;21.50;75.70;;;;;;5075256;28;20340;-61
2022/09/23 07:41:08;;;;;;;;;;;21.30;75.10;;;;;;5070306;28;19935;-62
2022/09/23 07:43:34;;;;;;;;;;;21.50;75.20;;;;;;5060127;28;19924;-61
2022/09/23 07:46:04;;;;;;;;;;;21.50;75.30;;;;;;5068141;28;20405;-67
2022/09/23 07:48:29;;;;;;;;;;;21.60;75.40;;;;;;5068739;28;20023;-73
2022/09/23 07:50:55;;;;;;;;;;;21.50;75.50;;;;;;5066291;28;20027;-72
2022/09/23 07:53:22;;;;;;;;;;;21.30;75.30;;;;;;5061583;28;19925;-73
2022/09/23 07:55:54;;;;;;;;;;;21.40;75.40;;;;;;5073144;28;19931;-61
2022/09/23 07:58:20;;;;;;;;;;;21.40;75.40;;;;;;5069734;28;19968;-63
2022/09/23 08:00:45;;;;;;;;;;;21.50;75.50;;;;;;5061173;28;19980;-66
2022/09/23 08:03:11;;;;;;;;;;;21.40;75.60;;;;;;5054447;28;19925;-64
2022/09/23 08:05:37;;;;;;;;;;;21.50;75.60;;;;;;5054986;28;19925;-62
2022/09/23 08:08:05;;;;;;;;;;;21.40;75.90;;;;;;5054862;28;19925;-62
2022/09/23 08:10:31;;;;;;;;;;;21.50;75.60;;;;;;5068011;28;19931;-61
2022/09/23 08:12:58;;;;;;;;;;;21.30;75.50;;;;;;5069787;28;19921;-64
2022/09/23 08:15:27;;;;;;;;;;;21.70;75.90;;;;;;5074773;28;19931;-61
2022/09/23 08:17:59;;;;;;;;;;;21.10;75.60;;;;;;5074259;28;20413;-61
2022/09/23 08:20:43;;;;;;;;;;;21.30;75.80;;;;;;5072459;28;19970;-61
2022/09/23 08:23:09;;;;;;;;;;;21.50;76.40;;;;;;5074574;28;19928;-61
2022/09/23 08:25:35;;;;;;;;;;;21.50;76.40;;;;;;5074304;28;19932;-61
2022/09/23 08:28:00;;;;;;;;;;;21.40;76.00;;;;;;5074078;28;19928;-62
2022/09/23 08:30:26;;;;;;;;;;;21.00;75.90;;;;;;5072321;28;20053;-62
2022/09/23 08:32:52;;;;;;;;;;;21.20;76.10;;;;;;5074162;28;19978;-61
2022/09/23 08:35:18;;;;;;;;;;;21.20;76.20;;;;;;5074441;28;19971;-61
2022/09/23 08:37:46;;;;;;;;;;;21.10;76.30;;;;;;5074099;28;20410;-61
2022/09/23 08:40:13;;;;;;;;;;;21.20;76.40;;;;;;5073498;28;19920;-61
2022/09/23 08:42:40;;;;;;;;;;;21.00;76.40;;;;;;5071671;28;19968;-62
2022/09/23 08:45:06;;;;;;;;;;;20.80;76.40;;;;;;5072514;28;19925;-61
2022/09/23 08:47:39;;;;;;;;;;;21.10;76.60;;;;;;5072964;28;20007;-62
2022/09/23 08:50:11;;;;;;;;;;;21.20;76.70;;;;;;5073113;28;20294;-61
2022/09/23 08:52:38;;;;;;;;;;;21.00;76.70;;;;;;5060949;28;19930;-61
2022/09/23 08:55:04;;;;;;;;;;;21.00;76.70;;;;;;5073562;28;20378;-61
2022/09/23 08:57:46;;;;;;;;;;;21.20;76.80;;;;;;5072081;28;19929;-61
2022/09/23 09:00:13;;;;;;;;;;;20.90;76.70;;;;;;5059483;28;20312;-61
2022/09/23 09:02:39;;;;;;;;;;;20.90;76.80;;;;;;5054665;28;19925;-61
2022/09/23 09:05:08;;;;;;;;;;;20.90;76.90;;;;;;5053994;28;19968;-61
2022/09/23 09:07:35;;;;;;;;;;;20.90;77.00;;;;;;5052794;28;19925;-61
2022/09/23 09:10:13;;;;;;;;;;;21.10;77.20;;;;;;5066695;28;19977;-60
2022/09/23 09:12:42;;;;;;;;;;;20.80;77.10;;;;;;5070543;28;19926;-61
2022/09/23 09:15:15;;;;;;;;;;;20.80;77.10;;;;;;5053603;28;19925;-61
2022/09/23 09:17:47;;;;;;;;;;;21.00;77.20;;;;;;5052420;28;19924;-61
2022/09/23 09:20:22;;;;;;;;;;;20.90;77.10;;;;;;5066371;28;19925;-61
2022/09/23 09:22:47;;;;;;;;;;;21.20;77.30;;;;;;5073413;28;19969;-62
2022/09/23 09:25:32;;;;;;;;;;;21.10;77.40;;;;;;5056026;28;20332;-61
2022/09/23 09:27:57;;;;;;;;;;;20.90;77.50;;;;;;5053423;28;19978;-60
2022/09/23 09:30:24;;;;;;;;;;;21.00;77.50;;;;;;5053363;28;20015;-60
2022/09/23 09:32:57;;;;;;;;;;;21.10;77.50;;;;;;5053785;28;19932;-61
2022/09/23 09:35:23;;;;;;;;;;;20.80;76.50;;;;;;5071325;28;19931;-61
2022/09/23 09:37:49;;;;;;;;;;;20.70;77.20;;;;;;5070919;28;19929;-61
2022/09/23 09:40:19;;;;;;;;;;;21.00;77.40;;;;;;5072977;28;19952;-61
2022/09/23 09:42:48;;;;;;;;;;;20.80;77.30;;;;;;5073434;28;19932;-61
2022/09/23 09:45:52;;;;;;;;;;;20.90;77.30;;;;;;5071491;28;19925;-60
2022/09/23 09:48:20;;;;;;;;;;;20.80;76.90;;;;;;5011485;28;19933;-61
2022/09/23 09:50:52;;;;;;;;;;;20.90;77.90;;;;;;5011913;28;20299;-61
2022/09/23 09:53:24;;;;;;;;;;;21.00;77.30;;;;;;5014518;28;20016;-60
2022/09/23 09:55:57;;;;;;;;;;;20.90;77.50;;;;;;4996350;28;19972;-60
2022/09/23 09:58:23;;;;;;;;;;;20.80;77.30;;;;;;5000683;28;19933;-60
2022/09/23 10:00:51;;;;;;;;;;;20.80;77.40;;;;;;5015322;28;20054;-61
2022/09/23 10:03:17;;;;;;;;;;;20.80;77.50;;;;;;5015185;28;19925;-60
2022/09/23 10:05:42;;;;;;;;;;;20.90;77.60;;;;;;5015256;28;19948;-61
2022/09/23 10:08:14;;;;;;;;;;;20.90;77.60;;;;;;5014100;28;19936;-60
2022/09/23 10:10:40;;;;;;;;;;;20.80;77.60;;;;;;5013548;28;19926;-61
2022/09/23 10:13:15;;;;;;;;;;;20.60;77.70;;;;;;4999044;28;19948;-61
2022/09/23 10:15:41;;;;;;;;;;;20.60;77.70;;;;;;5015131;28;19964;-61
2022/09/23 10:18:18;;;;;;;;;;;20.80;77.90;;;;;;4998599;28;20295;-61
2022/09/23 10:20:45;;;;;;;;;;;20.50;77.70;;;;;;4997148;28;19925;-62
2022/09/23 10:23:13;;;;;;;;;;;20.70;78.00;;;;;;5052743;28;19979;-61
2022/09/23 10:25:38;;;;;;;;;;;20.70;78.00;;;;;;5055421;28;20394;-61
2022/09/23 10:28:23;;;;;;;;;;;20.70;78.10;;;;;;5069049;28;19943;-61
2022/09/23 10:31:02;;;;;;;;;;;20.60;78.20;;;;;;5066379;28;19928;-61
2022/09/23 10:33:28;;;;;;;;;;;20.60;78.30;;;;;;5056763;28;20255;-60
2022/09/23 10:35:56;;;;;;;;;;;20.60;78.40;;;;;;5056715;28;19931;-61
2022/09/23 10:38:21;;;;;;;;;;;20.70;78.40;;;;;;5056328;28;19921;-61
2022/09/23 10:46:49;;;;;;;;;;;20.70;78.50;;;;;;5080850;28;19925;-61
2022/09/23 10:49:21;;;;;;;;;;;20.30;78.30;;;;;;5076121;28;19924;-61
2022/09/23 10:51:50;;;;;;;;;;;20.70;78.50;;;;;;5076038;28;19931;-61
2022/09/23 10:54:19;;;;;;;;;;;20.90;78.70;;;;;;5074869;28;19924;-62
2022/09/23 10:56:45;;;;;;;;;;;20.60;78.50;;;;;;5068602;28;20008;-61
2022/09/23 10:59:18;;;;;;;;;;;20.60;78.50;;;;;;5061173;28;19933;-61
2022/09/23 11:01:58;;;;;;;;;;;21.00;78.80;;;;;;5074720;28;19924;-61
2022/09/23 11:04:27;;;;;;;;;;;20.60;78.50;;;;;;5074800;28;20290;-61
2022/09/23 11:07:13;;;;;;;;;;;20.50;78.60;;;;;;5074866;28;20390;-61
2022/09/23 11:09:42;;;;;;;;;;;20.80;78.80;;;;;;5073593;28;20429;-61
2022/09/23 11:12:11;;;;;;;;;;;20.70;78.70;;;;;;5075350;28;20282;-61
2022/09/23 11:14:55;;;;;;;;;;;20.70;78.70;;;;;;5074797;28;19924;-61
2022/09/23 11:17:34;;;;;;;;;;;20.60;78.60;;;;;;5075781;28;19925;-61
2022/09/23 11:20:20;;;;;;;;;;;20.70;78.70;;;;;;5072900;28;20382;-71
2022/09/23 11:22:51;;;;;;;;;;;20.60;78.60;;;;;;5072926;28;19928;-61
2022/09/23 11:25:22;;;;;;;;;;;20.80;78.80;;;;;;5074588;28;19947;-71
2022/09/23 11:28:03;;;;;;;;;;;20.80;78.80;;;;;;5075362;28;19950;-61
2022/09/23 11:30:30;;;;;;;;;;;20.70;78.90;;;;;;5073621;28;20353;-62
2022/09/23 11:33:12;;;;;;;;;;;20.70;78.80;;;;;;5074617;28;19920;-62
2022/09/23 11:35:41;;;;;;;;;;;20.80;79.00;;;;;;5074103;28;20302;-61
2022/09/23 11:38:10;;;;;;;;;;;20.80;79.00;;;;;;5075505;28;19920;-61
2022/09/23 11:40:36;;;;;;;;;;;20.50;78.90;;;;;;5073559;28;19931;-61
2022/09/23 11:43:06;;;;;;;;;;;20.70;79.00;;;;;;5073302;28;20019;-61
2022/09/23 11:45:43;;;;;;;;;;;20.50;79.00;;;;;;5075899;28;19924;-61
2022/09/23 11:48:14;;;;;;;;;;;20.70;79.20;;;;;;5057143;28;20451;-61
2022/09/23 11:50:40;;;;;;;;;;;;;;;;;;5055252;28;19932;-61
2022/09/23 11:53:07;;;;;;;;;;;20.80;79.20;;;;;;5067782;28;19925;-61
2022/09/23 11:55:43;;;;;;;;;;;20.70;79.60;;;;;;5074829;28;19924;-63
2022/09/23 11:58:18;;;;;;;;;;;20.70;79.30;;;;;;5060368;28;19928;-61
2022/09/23 12:00:46;;;;;;;;;;;20.70;78.40;;;;;;5053645;28;20012;-61
2022/09/23 12:03:26;;;;;;;;;;;20.60;79.20;;;;;;5055617;28;19931;-60
2022/09/23 12:06:12;;;;;;;;;;;20.80;79.40;;;;;;5072797;28;19924;-60
2022/09/23 12:08:38;;;;;;;;;;;20.50;79.20;;;;;;5073949;28;19925;-61
2022/09/23 12:11:25;;;;;;;;;;;20.80;79.40;;;;;;5053811;28;21454;-61
2022/09/23 12:13:54;;;;;;;;;;;20.80;79.40;;;;;;5056349;28;19925;-60
2022/09/23 12:16:35;;;;;;;;;;;20.70;79.60;;;;;;5057273;28;20282;-61
2022/09/23 12:19:20;;;;;;;;;;;20.80;79.70;;;;;;5074520;28;19925;-61
2022/09/23 12:22:04;;;;;;;;;;;20.80;79.80;;;;;;5074661;28;19924;-61
2022/09/23 12:24:36;;;;;;;;;;;20.60;79.70;;;;;;5072123;28;19971;-67
2022/09/23 12:27:04;;;;;;;;;;;20.80;79.80;;;;;;5074153;28;19925;-61
2022/09/23 12:29:31;;;;;;;;;;;20.90;79.90;;;;;;5073288;28;19998;-61
2022/09/23 12:31:57;;;;;;;;;;;21.00;80.10;;;;;;5060042;28;20282;-61
2022/09/23 12:34:50;;;;;;;;;;;20.90;80.00;;;;;;5056826;28;20259;-62
2022/09/23 12:37:33;;;;;;;;;;;20.70;80.10;;;;;;5052494;28;19925;-62
2022/09/23 12:40:00;;;;;;;;;;;20.50;79.90;;;;;;5052680;28;19929;-68
2022/09/23 12:42:25;;;;;;;;;;;20.70;80.10;;;;;;5072580;28;19924;-68
2022/09/23 12:44:52;;;;;;;;;;;20.80;80.20;;;;;;5071978;28;19932;-61
2022/09/23 12:47:24;;;;;;;;;;;20.70;80.30;;;;;;5055525;28;20013;-61
2022/09/23 12:49:52;;;;;;;;;;;20.50;80.10;;;;;;5074272;28;19924;-61
2022/09/23 12:52:18;;;;;;;;;;;20.60;80.30;;;;;;5071835;28;19927;-60
2022/09/23 12:54:47;;;;;;;;;;;20.60;80.40;;;;;;5073058;28;20310;-61
2022/09/23 12:57:14;;;;;;;;;;;20.70;80.40;;;;;;5070814;28;20011;-61
2022/09/23 12:59:49;;;;;;;;;;;20.70;80.50;;;;;;5072312;28;19925;-61
2022/09/23 13:02:27;;;;;;;;;;;20.70;80.50;;;;;;5073127;28;19924;-61
2022/09/23 13:07:47;;;;;;;;;;;20.60;80.70;;;;;;5069903;28;20420;-61
2022/09/23 13:10:28;;;;;;;;;;;20.40;80.60;;;;;;5069803;28;19925;-65
2022/09/23 13:12:54;;;;;;;;;;;20.80;80.90;;;;;;5073974;28;19927;-61
2022/09/23 13:15:33;;;;;;;;;;;20.70;80.90;;;;;;5073992;28;20382;-61
2022/09/23 13:18:17;;;;;;;;;;;20.60;80.80;;;;;;5073587;28;20408;-61
2022/09/23 13:20:43;;;;;;;;;;;20.60;80.80;;;;;;5071823;28;19925;-61
2022/09/23 13:23:20;;;;;;;;;;;20.90;80.90;;;;;;5073594;28;19948;-61
2022/09/23 13:25:45;;;;;;;;;;;20.70;80.70;;;;;;5055616;28;20015;-61
2022/09/23 13:28:12;;;;;;;;;;;21.00;80.90;;;;;;5065157;28;20039;-61
2022/09/23 13:30:46;;;;;;;;;;;20.80;80.70;;;;;;5074680;28;19928;-61
2022/09/23 13:33:15;;;;;;;;;;;20.70;80.60;;;;;;5076393;28;19932;-61
2022/09/23 13:35:49;;;;;;;;;;;20.90;80.70;;;;;;5077583;28;19954;-61
2022/09/23 13:38:25;;;;;;;;;;;20.90;80.70;;;;;;5077568;28;19932;-61
2022/09/23 13:40:54;;;;;;;;;;;20.80;80.50;;;;;;5077752;28;19925;-61
2022/09/23 13:43:26;;;;;;;;;;;20.60;79.10;;;;;;5057463;28;19970;-70
2022/09/23 13:45:53;;;;;;;;;;;20.80;79.70;;;;;;5057703;28;19925;-61
2022/09/23 13:48:20;;;;;;;;;;;20.80;80.50;;;;;;5072768;28;20290;-62
2022/09/23 13:50:49;;;;;;;;;;;21.00;80.50;;;;;;5074518;28;20414;-61
2022/09/23 13:53:22;;;;;;;;;;;20.90;80.40;;;;;;5074221;28;19926;-61
2022/09/23 13:55:57;;;;;;;;;;;21.00;80.40;;;;;;5075959;28;19931;-61
2022/09/23 13:58:23;;;;;;;;;;;20.90;80.80;;;;;;5076245;28;20263;-62
2022/09/23 14:00:49;;;;;;;;;;;20.80;80.30;;;;;;5077406;28;19998;-61
2022/09/23 14:03:15;;;;;;;;;;;21.00;80.60;;;;;;5070625;28;19925;-62
2022/09/23 14:05:41;;;;;;;;;;;20.80;80.40;;;;;;5056980;28;19978;-61
2022/09/23 14:08:07;;;;;;;;;;;20.80;80.50;;;;;;5061722;28;19928;-61
2022/09/23 14:10:32;;;;;;;;;;;20.80;80.50;;;;;;5077667;28;20247;-61
2022/09/23 14:12:58;;;;;;;;;;;20.80;80.50;;;;;;5075953;28;20027;-61
2022/09/23 14:15:24;;;;;;;;;;;20.90;80.60;;;;;;5074707;28;20015;-61
2022/09/23 14:18:00;;;;;;;;;;;20.60;80.50;;;;;;5075738;28;19929;-61
2022/09/23 14:20:25;;;;;;;;;;;20.70;79.60;;;;;;5075619;28;19970;-61
2022/09/23 14:23:04;;;;;;;;;;;20.70;80.50;;;;;;5075980;28;19924;-69
2022/09/23 14:25:30;;;;;;;;;;;20.70;80.60;;;;;;5074083;28;19978;-61
2022/09/23 14:27:56;;;;;;;;;;;20.90;80.80;;;;;;5076450;28;20343;-61
2022/09/23 14:30:22;;;;;;;;;;;20.70;80.70;;;;;;5076455;28;19947;-61
2022/09/23 14:32:48;;;;;;;;;;;20.70;80.90;;;;;;5075933;28;20425;-61
2022/09/23 14:35:17;;;;;;;;;;;20.80;81.10;;;;;;5071879;28;19971;-61
2022/09/23 14:40:29;;;;;;;;;;;20.70;81.30;;;;;;5055638;28;19929;-60